Time;durP1;ratioP1;P1;durP2;ratioP2;P2;SDS_P1;SDS_P2;PMS_P1;PMS_P2;Temp;Humidity;BMP_temperature;BMP_pressure;BME280_temperature;BME280_humidity;BME280_pressure;Samples;Min_cycle;Max_cycle;Signal;HPM_P1;HPM_P2
2021/12/15 00:00:33;;;;;;;27.70;8.20;;;9.10;99.90;;;;;;4905675;29;20052;-81
2021/12/15 00:02:59;;;;;;;27.85;8.27;;;9.10;99.90;;;;;;4906272;29;20048;-81
2021/12/15 00:05:26;;;;;;;25.48;7.70;;;9.10;99.90;;;;;;4913071;29;20475;-81
2021/12/15 00:08:04;;;;;;;23.75;8.27;;;9.10;99.90;;;;;;4897521;29;20122;-81
2021/12/15 00:10:30;;;;;;;20.83;8.70;;;9.10;99.90;;;;;;4911897;29;20087;-81
2021/12/15 00:12:57;;;;;;;27.92;8.15;;;9.10;99.90;;;;;;4905440;29;20060;-81
2021/12/15 00:15:27;;;;;;;28.65;8.55;;;9.00;99.90;;;;;;4913123;29;20600;-81
2021/12/15 00:17:59;;;;;;;24.33;8.60;;;9.00;99.90;;;;;;4897699;29;20584;-81
2021/12/15 00:20:27;;;;;;;23.08;7.78;;;9.00;99.90;;;;;;4912403;29;20103;-81
2021/12/15 00:22:53;;;;;;;23.35;8.32;;;9.00;99.90;;;;;;4897171;29;20056;-81
2021/12/15 00:25:22;;;;;;;16.83;8.13;;;9.00;99.90;;;;;;4911176;29;20040;-81
2021/12/15 00:27:49;;;;;;;17.02;6.90;;;9.00;99.90;;;;;;4911504;29;20048;-81
2021/12/15 00:30:15;;;;;;;25.38;8.68;;;9.00;99.90;;;;;;4910947;29;20044;-81
2021/12/15 00:32:41;;;;;;;21.20;8.07;;;9.00;99.90;;;;;;4911084;29;20069;-80
2021/12/15 00:35:08;;;;;;;22.55;8.35;;;9.00;99.90;;;;;;4894832;29;20044;-81
2021/12/15 00:37:34;;;;;;;21.25;8.88;;;9.00;99.90;;;;;;4910859;29;20040;-81
2021/12/15 00:40:02;;;;;;;26.50;8.52;;;9.00;99.90;;;;;;4895653;29;20043;-81
2021/12/15 00:42:29;;;;;;;25.15;8.57;;;9.00;99.90;;;;;;4909865;29;20047;-81
2021/12/15 00:44:55;;;;;;;24.95;8.25;;;9.00;99.90;;;;;;4904861;29;20040;-81
2021/12/15 00:47:21;;;;;;;26.40;8.38;;;9.00;99.90;;;;;;4894156;29;20051;-80
2021/12/15 00:49:47;;;;;;;24.95;8.48;;;9.00;99.90;;;;;;4894765;29;20055;-81
2021/12/15 00:52:13;;;;;;;24.15;8.48;;;9.00;99.90;;;;;;4894677;29;20060;-81
2021/12/15 00:54:39;;;;;;;24.85;8.13;;;9.00;99.90;;;;;;4907951;29;20094;-80
2021/12/15 00:57:06;;;;;;;26.65;9.13;;;9.00;99.90;;;;;;4910694;29;20048;-81
2021/12/15 00:59:32;;;;;;;31.63;9.10;;;9.00;99.90;;;;;;4905573;29;20050;-81
2021/12/15 01:01:58;;;;;;;30.58;10.82;;;9.00;99.90;;;;;;4910330;29;20059;-81
2021/12/15 01:04:25;;;;;;;20.17;9.00;;;9.00;99.90;;;;;;4910235;29;20108;-81
2021/12/15 01:06:56;;;;;;;26.60;9.80;;;9.00;99.90;;;;;;4910295;29;20127;-81
2021/12/15 01:09:31;;;;;;;32.83;10.57;;;9.10;99.90;;;;;;4904155;29;20134;-81
2021/12/15 01:19:52;;;;;;;29.00;12.02;;;9.10;99.90;;;;;;4912309;29;20060;-80
2021/12/15 01:22:32;;;;;;;26.67;12.60;;;9.10;99.90;;;;;;4911324;29;20055;-81
2021/12/15 01:25:11;;;;;;;36.70;12.52;;;9.10;99.90;;;;;;4908102;29;20112;-81
2021/12/15 01:27:37;;;;;;;28.48;12.50;;;9.10;99.90;;;;;;4911447;29;20134;-81
2021/12/15 01:30:06;;;;;;;33.05;13.88;;;9.10;99.90;;;;;;4911551;29;20175;-80
2021/12/15 01:32:32;;;;;;;33.10;12.63;;;9.10;99.90;;;;;;4903363;29;20126;-82
2021/12/15 01:34:57;;;;;;;25.88;13.40;;;9.10;99.90;;;;;;4895238;29;20059;-82
2021/12/15 01:37:23;;;;;;;34.45;12.80;;;9.10;99.90;;;;;;4894723;29;20055;-81
2021/12/15 01:39:54;;;;;;;31.40;13.57;;;9.10;99.90;;;;;;4896162;29;20052;-82
2021/12/15 01:42:20;;;;;;;31.73;13.25;;;9.20;99.90;;;;;;4910673;29;20103;-82
2021/12/15 01:47:30;;;;;;;27.77;12.40;;;9.20;99.90;;;;;;4910954;29;20077;-81
2021/12/15 01:49:56;;;;;;;31.17;12.35;;;9.10;99.90;;;;;;4895609;29;20139;-81
2021/12/15 01:52:33;;;;;;;31.60;12.82;;;9.20;99.90;;;;;;4893646;29;20044;-81
2021/12/15 01:55:12;;;;;;;39.22;13.75;;;9.10;99.90;;;;;;4910078;29;20040;-81
2021/12/15 01:57:37;;;;;;;28.98;12.95;;;9.20;99.90;;;;;;4909363;29;20584;-82
2021/12/15 02:00:11;;;;;;;28.13;12.27;;;9.20;99.90;;;;;;4909169;29;20131;-81
2021/12/15 02:02:37;;;;;;;29.10;12.38;;;9.20;99.90;;;;;;4907825;29;20048;-81
2021/12/15 02:05:03;;;;;;;33.22;13.15;;;9.10;99.90;;;;;;4910142;29;20104;-81
2021/12/15 02:07:29;;;;;;;34.08;12.55;;;9.10;99.90;;;;;;4903454;29;20111;-82
2021/12/15 02:12:31;;;;;;;31.35;11.98;;;9.10;99.90;;;;;;4902656;29;20066;-81
2021/12/15 02:14:57;;;;;;;31.67;12.18;;;9.10;99.90;;;;;;4925322;29;20048;-81
2021/12/15 02:17:23;;;;;;;32.40;12.55;;;9.10;99.90;;;;;;4893205;29;20066;-82
2021/12/15 02:19:49;;;;;;;30.63;11.50;;;9.10;99.90;;;;;;4925901;29;20059;-81
2021/12/15 02:22:16;;;;;;;27.38;11.10;;;9.10;99.90;;;;;;4924909;29;20400;-82
2021/12/15 02:24:43;;;;;;;34.72;13.77;;;9.10;99.90;;;;;;4893676;29;20071;-82
2021/12/15 02:27:12;;;;;;;30.50;12.23;;;9.10;99.90;;;;;;4909432;29;20052;-81
2021/12/15 02:29:41;;;;;;;27.90;11.63;;;9.10;99.90;;;;;;4893107;29;20399;-81
2021/12/15 02:32:18;;;;;;;31.65;13.02;;;9.10;99.90;;;;;;4895617;29;20055;-81
2021/12/15 02:37:23;;;;;;;32.25;12.00;;;9.10;99.90;;;;;;4894422;29;20048;-79
2021/12/15 02:39:57;;;;;;;32.58;12.68;;;9.00;99.90;;;;;;4894215;29;20131;-79
2021/12/15 02:42:27;;;;;;;31.92;12.85;;;9.00;99.90;;;;;;4904953;29;20083;-79
2021/12/15 02:44:55;;;;;;;29.92;12.35;;;9.00;99.90;;;;;;4909243;29;20512;-79
2021/12/15 02:47:24;;;;;;;35.55;12.05;;;9.00;99.90;;;;;;4892800;29;20056;-80
2021/12/15 02:49:53;;;;;;;27.35;12.27;;;9.00;99.90;;;;;;4909249;29;20052;-79
2021/12/15 02:52:19;;;;;;;32.80;11.68;;;9.00;99.90;;;;;;4907543;29;20055;-79
2021/12/15 02:54:45;;;;;;;32.28;11.75;;;9.00;99.90;;;;;;4908589;29;20067;-79
2021/12/15 02:57:12;;;;;;;28.52;10.93;;;9.00;99.90;;;;;;4894790;29;20052;-79
2021/12/15 02:59:55;;;;;;;27.65;12.05;;;9.00;99.90;;;;;;4911565;29;20048;-79
2021/12/15 03:05:13;;;;;;;29.30;12.50;;;9.00;99.90;;;;;;4913170;29;20449;-80
2021/12/15 03:07:50;;;;;;;24.42;10.88;;;9.00;99.90;;;;;;4897220;29;20048;-79
2021/12/15 03:15:50;;;;;;;30.73;11.70;;;9.00;99.90;;;;;;4915078;29;20078;-79
2021/12/15 03:18:19;;;;;;;25.90;11.13;;;9.00;99.90;;;;;;4921964;29;20489;-79
2021/12/15 03:20:54;;;;;;;30.40;11.88;;;9.10;99.90;;;;;;4911907;29;20067;-81
2021/12/15 03:23:23;;;;;;;24.98;10.50;;;9.00;99.90;;;;;;4912056;29;20044;-81
2021/12/15 03:25:49;;;;;;;27.58;10.05;;;9.00;99.90;;;;;;4906246;29;20416;-81
2021/12/15 03:33:58;;;;;;;23.63;10.32;;;9.00;99.90;;;;;;4911826;29;20103;-81
2021/12/15 03:36:52;;;;;;;25.75;9.55;;;9.00;99.90;;;;;;4912296;29;20370;-81
2021/12/15 03:39:20;;;;;;;24.38;9.27;;;9.00;99.90;;;;;;4900038;29;20052;-81
2021/12/15 03:41:52;;;;;;;27.25;9.52;;;8.80;99.90;;;;;;4911712;29;20058;-81
2021/12/15 03:44:18;;;;;;;25.83;9.25;;;9.00;99.90;;;;;;4906075;29;20119;-81
2021/12/15 03:46:44;;;;;;;23.63;8.43;;;9.00;99.90;;;;;;4905539;29;20088;-81
2021/12/15 03:49:10;;;;;;;24.50;8.73;;;9.00;99.90;;;;;;4911957;29;20482;-81
2021/12/15 03:51:36;;;;;;;23.55;7.45;;;9.00;99.90;;;;;;4910166;29;20079;-81
2021/12/15 03:54:03;;;;;;;21.80;8.15;;;9.10;99.90;;;;;;4911732;29;20079;-81
2021/12/15 03:56:29;;;;;;;24.70;9.05;;;9.10;99.90;;;;;;4911572;29;20233;-81
2021/12/15 03:58:56;;;;;;;20.30;7.38;;;9.00;99.90;;;;;;4891715;29;20574;-81
2021/12/15 04:01:23;;;;;;;21.75;7.22;;;9.00;99.90;;;;;;4905851;29;20064;-81
2021/12/15 04:03:51;;;;;;;20.17;6.82;;;8.20;99.90;;;;;;4895660;29;20036;-80
2021/12/15 04:06:30;;;;;;;20.83;6.68;;;9.00;99.90;;;;;;4911677;29;20056;-81
2021/12/15 04:08:56;;;;;;;20.35;6.57;;;9.00;99.90;;;;;;4910481;29;20052;-81
2021/12/15 04:11:25;;;;;;;20.67;6.57;;;9.00;99.90;;;;;;4905640;29;20047;-81
2021/12/15 04:13:52;;;;;;;28.27;6.70;;;9.00;99.90;;;;;;4911331;29;20076;-81
2021/12/15 04:19:03;;;;;;;19.15;7.20;;;9.00;99.90;;;;;;4911376;29;20510;-81
2021/12/15 04:21:29;;;;;;;20.17;7.05;;;9.10;99.90;;;;;;4888804;29;20144;-81
2021/12/15 04:23:57;;;;;;;21.98;6.72;;;9.10;99.90;;;;;;4895794;29;20124;-80
2021/12/15 04:26:23;;;;;;;18.88;5.80;;;9.00;99.90;;;;;;4911053;29;20541;-82
2021/12/15 04:28:50;;;;;;;20.95;6.55;;;9.00;99.90;;;;;;4910963;29;20135;-82
2021/12/15 04:31:22;;;;;;;19.88;6.60;;;9.00;99.90;;;;;;4910285;29;20044;-81
2021/12/15 04:34:09;;;;;;;21.65;6.90;;;9.00;99.90;;;;;;4905802;29;20052;-81
2021/12/15 04:36:40;;;;;;;20.17;6.20;;;9.00;99.90;;;;;;4905969;29;20043;-81
2021/12/15 04:39:09;;;;;;;20.42;6.55;;;8.90;99.90;;;;;;4910568;29;20084;-81
2021/12/15 04:41:35;;;;;;;19.45;6.95;;;8.90;99.90;;;;;;4921220;29;20063;-81
2021/12/15 04:44:09;;;;;;;17.23;6.28;;;8.90;99.90;;;;;;4895923;29;20052;-81
2021/12/15 04:46:37;;;;;;;20.80;6.82;;;8.90;99.90;;;;;;4910510;29;20381;-81
2021/12/15 04:49:05;;;;;;;19.00;6.75;;;8.80;99.90;;;;;;4910400;29;20055;-81
2021/12/15 04:51:31;;;;;;;21.42;6.57;;;8.80;99.90;;;;;;4909281;29;20489;-81
2021/12/15 04:53:58;;;;;;;19.48;7.32;;;8.80;99.90;;;;;;4910734;29;20055;-81
2021/12/15 04:56:25;;;;;;;22.60;7.47;;;8.70;99.90;;;;;;4910109;29;20044;-81
2021/12/15 04:58:53;;;;;;;18.63;6.97;;;8.70;99.90;;;;;;4909641;29;20066;-81
2021/12/15 05:01:20;;;;;;;22.80;7.10;;;8.70;99.90;;;;;;4904204;29;20052;-81
2021/12/15 05:03:46;;;;;;;28.40;7.93;;;8.70;99.90;;;;;;4893997;29;20075;-81
2021/12/15 05:06:12;;;;;;;20.38;7.10;;;8.70;99.90;;;;;;4910385;29;20060;-81
2021/12/15 05:08:40;;;;;;;23.02;7.68;;;8.70;99.90;;;;;;4904828;29;20139;-81
2021/12/15 05:11:07;;;;;;;22.85;7.25;;;8.70;99.90;;;;;;4910261;29;20040;-81
2021/12/15 05:13:34;;;;;;;23.77;7.68;;;8.70;99.90;;;;;;4909036;29;20048;-82
2021/12/15 05:16:02;;;;;;;26.88;7.20;;;8.70;99.90;;;;;;4910036;29;20095;-82
2021/12/15 05:18:28;;;;;;;25.50;8.38;;;8.60;99.90;;;;;;4908990;29;20111;-81
2021/12/15 05:20:54;;;;;;;24.67;8.07;;;8.70;99.90;;;;;;4909770;29;20501;-81
2021/12/15 05:23:21;;;;;;;20.85;8.30;;;8.70;99.90;;;;;;4910347;29;20082;-81
2021/12/15 05:25:48;;;;;;;21.48;8.00;;;8.60;99.90;;;;;;4909732;29;20606;-79
2021/12/15 05:28:15;;;;;;;26.35;9.00;;;8.70;99.90;;;;;;4909502;29;20055;-80
2021/12/15 05:30:41;;;;;;;25.63;8.35;;;8.70;99.90;;;;;;4903737;29;20052;-80
2021/12/15 05:33:07;;;;;;;22.35;9.57;;;8.70;99.90;;;;;;4911238;29;20100;-80
2021/12/15 05:35:34;;;;;;;28.17;8.73;;;8.80;99.90;;;;;;4894468;29;20139;-79
2021/12/15 05:38:01;;;;;;;27.20;8.70;;;8.80;99.90;;;;;;4894166;29;20048;-80
2021/12/15 05:40:28;;;;;;;29.52;8.68;;;8.80;99.90;;;;;;4893333;29;20055;-81
2021/12/15 05:42:58;;;;;;;21.33;8.57;;;8.90;99.90;;;;;;4910413;29;20044;-80
2021/12/15 05:45:29;;;;;;;28.42;8.93;;;8.90;99.90;;;;;;4894060;29;20055;-80
2021/12/15 05:47:57;;;;;;;22.48;9.43;;;8.90;99.90;;;;;;4909623;29;20048;-80
2021/12/15 05:50:24;;;;;;;27.08;9.00;;;8.90;99.90;;;;;;4909510;29;20051;-81
2021/12/15 05:52:54;;;;;;;28.10;9.07;;;9.00;99.90;;;;;;4909216;29;20088;-80
2021/12/15 05:55:20;;;;;;;25.15;8.65;;;9.00;99.90;;;;;;4910325;29;20044;-80
2021/12/15 05:57:46;;;;;;;22.33;8.02;;;9.00;99.90;;;;;;4925042;29;20803;-80
2021/12/15 06:00:21;;;;;;;28.10;7.70;;;9.00;99.90;;;;;;4910445;29;20055;-80
2021/12/15 06:02:47;;;;;;;18.73;8.23;;;9.00;99.90;;;;;;4910226;29;20138;-80
2021/12/15 06:05:14;;;;;;;23.88;7.50;;;9.10;99.90;;;;;;4906494;29;20260;-80
2021/12/15 06:07:40;;;;;;;19.08;7.60;;;9.10;99.90;;;;;;4903456;29;20070;-79
2021/12/15 06:10:09;;;;;;;20.42;7.57;;;9.00;99.90;;;;;;4878091;29;20136;-79
2021/12/15 06:12:35;;;;;;;20.75;7.72;;;8.90;99.90;;;;;;4892566;29;20078;-80
2021/12/15 06:15:02;;;;;;;21.40;7.32;;;8.90;99.90;;;;;;4909205;29;20497;-79
2021/12/15 06:17:28;;;;;;;20.85;6.90;;;8.90;99.90;;;;;;4909144;29;20047;-80
2021/12/15 06:19:55;;;;;;;26.88;8.18;;;8.90;99.90;;;;;;4909527;29;20512;-79
2021/12/15 06:22:26;;;;;;;19.17;6.65;;;8.90;99.90;;;;;;4905846;29;20056;-79
2021/12/15 06:24:56;;;;;;;25.77;7.47;;;8.90;99.90;;;;;;4902000;29;20150;-79
2021/12/15 06:27:23;;;;;;;24.38;7.18;;;8.80;99.90;;;;;;4893262;29;20047;-80
2021/12/15 06:29:51;;;;;;;15.38;6.22;;;8.80;99.90;;;;;;4893093;29;20210;-79
2021/12/15 06:32:17;;;;;;;19.45;7.20;;;8.80;99.90;;;;;;4894816;29;20060;-79
2021/12/15 06:34:43;;;;;;;20.60;6.63;;;8.80;99.90;;;;;;4912871;29;20052;-79
2021/12/15 06:37:09;;;;;;;18.67;6.90;;;8.80;99.90;;;;;;4913240;29;20066;-79
2021/12/15 06:39:36;;;;;;;23.02;7.35;;;8.70;99.90;;;;;;4896015;29;20060;-79
2021/12/15 06:42:03;;;;;;;19.67;6.57;;;8.70;99.90;;;;;;4912738;29;20131;-79
2021/12/15 06:44:28;;;;;;;20.90;6.38;;;8.70;99.90;;;;;;4897237;29;20179;-80
2021/12/15 07:00:33;;;;;;;18.10;6.10;;;8.70;99.90;;;;;;4912391;29;20059;-79
2021/12/15 07:03:01;;;;;;;18.73;5.78;;;8.70;99.90;;;;;;4897641;29;20063;-81
2021/12/15 07:05:28;;;;;;;18.95;5.78;;;8.70;99.90;;;;;;4912814;29;20391;-80
2021/12/15 07:07:56;;;;;;;15.05;4.75;;;8.70;99.90;;;;;;4896811;29;20060;-80
2021/12/15 07:10:25;;;;;;;15.43;5.00;;;8.60;99.90;;;;;;4911613;29;20051;-80
2021/12/15 07:12:52;;;;;;;13.05;4.50;;;8.70;99.90;;;;;;4923235;29;20052;-80
2021/12/15 07:15:18;;;;;;;14.88;5.03;;;8.60;99.90;;;;;;4907798;29;20056;-79
2021/12/15 07:17:47;;;;;;;16.38;5.72;;;8.70;99.90;;;;;;4911444;29;20055;-81
2021/12/15 07:22:56;;;;;;;16.75;5.05;;;8.60;99.90;;;;;;4912336;29;20056;-80
2021/12/15 07:25:22;;;;;;;15.02;5.47;;;8.70;99.90;;;;;;4912165;29;20056;-80
2021/12/15 07:27:49;;;;;;;14.13;4.68;;;8.60;99.90;;;;;;4904330;29;20128;-81
2021/12/15 07:30:15;;;;;;;14.55;4.85;;;8.60;99.90;;;;;;4896967;29;20048;-79
2021/12/15 07:32:41;;;;;;;10.98;4.53;;;8.50;99.90;;;;;;4911239;29;20382;-81
2021/12/15 07:35:15;;;;;;;15.70;4.93;;;8.50;99.90;;;;;;4910210;29;20051;-83
2021/12/15 07:37:41;;;;;;;17.42;4.88;;;8.50;99.90;;;;;;4911985;29;20091;-82
2021/12/15 07:40:13;;;;;;;14.40;4.85;;;8.40;99.90;;;;;;4896034;29;20048;-82
2021/12/15 07:42:55;;;;;;;20.02;5.57;;;8.40;99.90;;;;;;4928419;29;20040;-84
2021/12/15 07:45:23;;;;;;;13.30;4.25;;;8.40;99.90;;;;;;4897508;29;20052;-83
2021/12/15 07:47:54;;;;;;;13.88;4.53;;;8.50;99.90;;;;;;4911588;29;20780;-80
2021/12/15 07:50:21;;;;;;;11.85;4.30;;;8.40;99.90;;;;;;4910239;29;20051;-81
2021/12/15 07:52:51;;;;;;;13.95;4.70;;;8.40;99.90;;;;;;4927057;29;20048;-79
2021/12/15 07:55:18;;;;;;;13.95;4.72;;;8.40;99.90;;;;;;4910966;29;20052;-80
2021/12/15 07:57:44;;;;;;;15.68;4.68;;;8.40;99.90;;;;;;4909669;29;20052;-80
2021/12/15 08:00:12;;;;;;;18.13;4.13;;;8.40;99.90;;;;;;4895198;29;20040;-80
2021/12/15 08:02:37;;;;;;;12.75;3.58;;;8.40;99.90;;;;;;4904047;29;20524;-80
2021/12/15 08:05:05;;;;;;;22.30;4.78;;;8.40;99.90;;;;;;4907190;29;20056;-80
2021/12/15 08:07:31;;;;;;;17.08;4.30;;;8.50;99.90;;;;;;4895293;29;20059;-80
2021/12/15 08:09:57;;;;;;;17.45;4.22;;;8.50;99.90;;;;;;4897855;29;20059;-80
2021/12/15 08:12:23;;;;;;;16.13;4.10;;;8.50;99.90;;;;;;4906674;29;20064;-80
2021/12/15 08:14:49;;;;;;;13.23;3.90;;;8.50;99.90;;;;;;4913285;29;20112;-80
2021/12/15 08:17:15;;;;;;;17.83;4.40;;;8.50;99.90;;;;;;4897121;29;20060;-80
2021/12/15 08:19:41;;;;;;;16.83;3.80;;;8.50;99.90;;;;;;4904752;29;20558;-80
2021/12/15 08:22:07;;;;;;;16.52;3.88;;;8.50;99.90;;;;;;4911497;29;20450;-80
2021/12/15 08:24:33;;;;;;;12.93;4.20;;;8.50;99.90;;;;;;4912566;29;20060;-80
2021/12/15 08:26:59;;;;;;;14.13;4.13;;;8.50;99.90;;;;;;4912003;29;20110;-80
2021/12/15 08:29:25;;;;;;;11.80;4.78;;;8.50;99.90;;;;;;4896337;29;20107;-80
2021/12/15 08:31:51;;;;;;;18.55;4.03;;;8.60;99.90;;;;;;4911747;29;20434;-81
2021/12/15 08:34:16;;;;;;;14.15;4.30;;;8.60;99.90;;;;;;4904807;29;20502;-81
2021/12/15 08:36:42;;;;;;;13.88;3.88;;;8.60;99.90;;;;;;4896039;29;20632;-79
2021/12/15 08:39:08;;;;;;;10.60;4.00;;;8.60;99.90;;;;;;4911601;29;20119;-80
2021/12/15 08:41:35;;;;;;;10.23;3.78;;;8.90;99.90;;;;;;4912440;29;20048;-80
2021/12/15 08:44:06;;;;;;;15.18;3.63;;;8.60;99.90;;;;;;4911287;29;20055;-80
2021/12/15 08:46:39;;;;;;;11.60;3.70;;;8.60;99.90;;;;;;4912184;29;20434;-81
2021/12/15 08:49:06;;;;;;;12.20;3.58;;;8.70;99.90;;;;;;4897124;29;20719;-80
2021/12/15 08:51:32;;;;;;;9.18;3.55;;;8.70;99.90;;;;;;4895122;29;20050;-81
2021/12/15 08:54:01;;;;;;;12.73;3.50;;;8.70;99.90;;;;;;4896450;29;20044;-81
2021/12/15 08:56:27;;;;;;;8.77;3.70;;;8.70;99.90;;;;;;4911079;29;20074;-80
2021/12/15 08:58:54;;;;;;;9.80;2.97;;;8.80;99.90;;;;;;4896540;29;20056;-79
2021/12/15 09:01:21;;;;;;;14.25;3.58;;;8.80;99.90;;;;;;4911051;29;20051;-80
2021/12/15 09:03:47;;;;;;;6.30;2.67;;;8.80;99.90;;;;;;4894446;29;20919;-78
2021/12/15 09:06:13;;;;;;;11.00;3.08;;;8.80;99.90;;;;;;4895161;29;20171;-80
2021/12/15 09:08:42;;;;;;;9.02;2.90;;;8.80;99.90;;;;;;4910166;29;20490;-80
2021/12/15 09:11:11;;;;;;;8.45;2.90;;;8.80;99.90;;;;;;4911118;29;20040;-80
2021/12/15 09:18:18;;;;;;;10.48;2.70;;;8.80;99.90;;;;;;4864373;29;20566;-80
2021/12/15 09:21:36;;;;;;;;;;;;;;;;;;;;;
2021/12/15 09:28:07;;;;;;;10.48;2.90;;;8.90;99.90;;;;;;4883873;29;20051;-80
2021/12/15 09:30:34;;;;;;;8.25;2.67;;;8.90;99.90;;;;;;4904317;29;20114;-80
2021/12/15 09:33:00;;;;;;;9.43;2.42;;;8.90;99.90;;;;;;4911706;29;20047;-80
2021/12/15 09:35:31;;;;;;;10.88;2.58;;;8.90;99.90;;;;;;4911167;29;20131;-80
2021/12/15 09:37:57;;;;;;;6.93;2.20;;;8.90;99.90;;;;;;4888887;29;20052;-80
2021/12/15 09:40:23;;;;;;;8.02;2.45;;;9.10;99.90;;;;;;4895502;29;20052;-80
2021/12/15 09:42:50;;;;;;;7.82;2.40;;;9.00;99.90;;;;;;4893716;29;20052;-81
2021/12/15 10:04:32;;;;;;;10.75;2.22;;;9.00;99.90;;;;;;4887283;29;20052;-80
2021/12/15 10:07:23;;;;;;;;;;;9.00;99.90;;;;;;4909823;29;20417;-80
2021/12/15 10:18:46;;;;;;;7.63;2.47;;;9.00;99.90;;;;;;4909273;29;20494;-80
2021/12/15 10:21:05;;;;;;;9.80;2.60;;;9.00;99.90;;;;;;4907669;29;20120;-79
2021/12/15 10:23:39;;;;;;;9.27;2.63;;;9.00;99.90;;;;;;4893907;29;20115;-80
2021/12/15 10:26:07;;;;;;;10.93;2.58;;;9.00;99.90;;;;;;4878870;29;20283;-80
2021/12/15 10:28:35;;;;;;;8.77;3.08;;;9.00;99.90;;;;;;4894149;29;20178;-80
2021/12/15 10:31:12;;;;;;;8.05;3.50;;;9.00;99.90;;;;;;4908798;29;20048;-81
2021/12/15 10:33:46;;;;;;;12.23;3.30;;;9.00;99.90;;;;;;4892976;29;20072;-79
2021/12/15 10:36:22;;;;;;;8.20;3.00;;;9.00;99.90;;;;;;4909295;29;20048;-80
2021/12/15 10:38:57;;;;;;;8.90;3.53;;;9.10;99.90;;;;;;4893367;29;20059;-80
2021/12/15 10:41:32;;;;;;;7.68;2.85;;;9.10;99.90;;;;;;4910608;29;20056;-80
2021/12/15 10:44:03;;;;;;;10.43;3.00;;;9.20;99.90;;;;;;4910839;29;20076;-80
2021/12/15 10:46:42;;;;;;;16.70;4.00;;;9.20;99.90;;;;;;4910570;29;20044;-80
2021/12/15 10:49:10;;;;;;;10.38;3.67;;;9.20;99.90;;;;;;4910336;29;20055;-80
2021/12/15 10:51:43;;;;;;;12.02;3.55;;;9.20;99.90;;;;;;4893504;29;20037;-80
2021/12/15 10:54:12;;;;;;;14.35;3.42;;;9.20;99.90;;;;;;4906065;29;20497;-80
2021/12/15 10:57:01;;;;;;;15.45;3.28;;;9.20;99.90;;;;;;4909680;29;20083;-80
2021/12/15 10:59:31;;;;;;;8.75;2.75;;;9.30;99.90;;;;;;4925550;29;20063;-80
2021/12/15 11:02:06;;;;;;;9.23;2.60;;;9.30;99.90;;;;;;4909342;29;20370;-80
2021/12/15 11:04:43;;;;;;;8.38;2.58;;;9.30;99.90;;;;;;4894272;29;20056;-82
2021/12/15 11:07:18;;;;;;;8.07;2.45;;;9.40;99.90;;;;;;4909733;29;20391;-81
2021/12/15 11:09:46;;;;;;;8.73;3.13;;;9.40;99.90;;;;;;4894397;29;20135;-82
2021/12/15 11:12:17;;;;;;;8.18;2.30;;;9.30;99.90;;;;;;4909028;29;20082;-83
2021/12/15 11:14:46;;;;;;;6.25;2.22;;;9.30;99.90;;;;;;4895098;29;20192;-83
2021/12/15 11:17:18;;;;;;;5.35;1.90;;;9.30;99.90;;;;;;4910861;29;20056;-82
2021/12/15 11:19:52;;;;;;;4.45;1.40;;;9.20;99.90;;;;;;4914871;29;20059;-82
2021/12/15 11:22:37;;;;;;;5.50;1.42;;;9.30;99.90;;;;;;4913900;29;20052;-81
2021/12/15 11:25:20;;;;;;;2.80;1.20;;;9.30;99.90;;;;;;4906212;29;20113;-82
2021/12/15 11:28:18;;;;;;;4.20;2.10;;;8.80;99.90;;;;;;4898352;29;20060;-81
2021/12/15 11:31:02;;;;;;;5.43;1.50;;;9.30;99.90;;;;;;4929264;29;20079;-82
2021/12/15 11:33:37;;;;;;;4.65;1.33;;;9.30;99.90;;;;;;4930504;29;20056;-83
2021/12/15 11:36:09;;;;;;;3.50;1.60;;;9.40;99.90;;;;;;4906909;29;20059;-83
2021/12/15 11:38:44;;;;;;;4.30;1.52;;;9.40;99.90;;;;;;4913283;29;20314;-78
2021/12/15 11:41:10;;;;;;;3.35;1.60;;;9.50;99.90;;;;;;4914681;29;20185;-77
2021/12/15 11:43:41;;;;;;;3.33;1.42;;;9.50;99.90;;;;;;4913097;29;20532;-81
2021/12/15 11:46:16;;;;;;;7.03;1.77;;;9.50;99.90;;;;;;4927551;29;20076;-80
2021/12/15 11:48:44;;;;;;;5.05;1.65;;;9.50;99.90;;;;;;4897869;29;20151;-82
2021/12/15 11:51:10;;;;;;;5.57;1.52;;;9.40;99.90;;;;;;4906858;29;20325;-81
2021/12/15 11:53:48;;;;;;;3.60;1.40;;;9.40;99.90;;;;;;4913044;29;20050;-82
2021/12/15 11:56:28;;;;;;;5.38;1.40;;;9.40;99.90;;;;;;4912380;29;20048;-82
2021/12/15 11:59:17;;;;;;;3.80;1.52;;;9.40;99.90;;;;;;4897318;29;20044;-81
2021/12/15 12:01:50;;;;;;;5.43;1.70;;;9.50;99.90;;;;;;4904226;29;20201;-81
2021/12/15 12:04:25;;;;;;;6.50;1.63;;;9.40;99.90;;;;;;4913333;29;20056;-82
2021/12/15 12:06:55;;;;;;;5.28;2.22;;;9.40;99.90;;;;;;4897692;29;20096;-82
2021/12/15 12:09:23;;;;;;;4.05;1.85;;;9.40;99.90;;;;;;4913461;29;20087;-81
2021/12/15 12:11:55;;;;;;;8.82;1.83;;;9.30;99.90;;;;;;4905747;29;20103;-81
2021/12/15 12:14:44;;;;;;;3.40;1.70;;;9.30;99.90;;;;;;4913584;29;20087;-81
2021/12/15 12:17:13;;;;;;;8.30;1.92;;;9.30;99.90;;;;;;4896705;29;20147;-82
2021/12/15 12:19:42;;;;;;;7.70;1.70;;;9.30;99.90;;;;;;4897274;29;20079;-81
2021/12/15 12:22:10;;;;;;;4.57;1.33;;;9.30;99.90;;;;;;4912550;29;20044;-81
2021/12/15 12:24:37;;;;;;;6.18;1.60;;;9.30;99.90;;;;;;4882572;29;20060;-81
2021/12/15 12:27:03;;;;;;;5.10;1.58;;;9.30;99.90;;;;;;4874321;29;20159;-81
2021/12/15 12:29:30;;;;;;;3.20;1.60;;;9.30;99.90;;;;;;4905392;29;20489;-82
2021/12/15 12:31:56;;;;;;;2.53;1.60;;;9.30;99.90;;;;;;4909698;29;20044;-82
2021/12/15 12:34:21;;;;;;;4.25;1.75;;;9.30;99.90;;;;;;4897711;29;20450;-82
2021/12/15 12:36:48;;;;;;;7.38;1.73;;;9.20;99.90;;;;;;4904639;29;20044;-81
2021/12/15 12:39:17;;;;;;;5.30;1.55;;;9.30;99.90;;;;;;4912033;29;20060;-81
2021/12/15 12:41:49;;;;;;;3.15;1.45;;;9.30;99.90;;;;;;4912339;29;20060;-81
2021/12/15 12:44:20;;;;;;;6.88;1.30;;;9.30;99.90;;;;;;4895898;29;20052;-78
2021/12/15 12:47:00;;;;;;;4.53;1.25;;;9.30;99.90;;;;;;4911744;29;20048;-80
2021/12/15 13:01:11;;;;;;;4.68;1.38;;;9.10;99.90;;;;;;4913340;29;19930;-83
2021/12/15 13:03:42;;;;;;;5.63;1.50;;;9.40;99.90;;;;;;4913759;29;20115;-83
2021/12/15 13:06:19;;;;;;;3.42;1.20;;;9.00;99.90;;;;;;4911982;29;21213;-83
2021/12/15 13:08:46;;;;;;;4.68;1.52;;;9.30;99.90;;;;;;4912254;29;20454;-82
2021/12/15 13:11:23;;;;;;;3.05;1.30;;;9.30;99.90;;;;;;4894587;29;20071;-82
2021/12/15 13:14:03;;;;;;;6.32;1.50;;;9.30;99.90;;;;;;4910273;29;20064;-80
2021/12/15 13:16:38;;;;;;;6.53;1.52;;;9.30;99.90;;;;;;4888830;29;20055;-80
2021/12/15 13:19:15;;;;;;;9.35;1.60;;;9.20;99.90;;;;;;4901626;29;20063;-80
2021/12/15 13:22:17;;;;;;;4.57;1.48;;;9.20;99.90;;;;;;4927594;29;20159;-80
2021/12/15 13:31:01;;;;;;;3.92;1.50;;;9.10;99.90;;;;;;4911843;29;20041;-80
2021/12/15 13:33:38;;;;;;;4.53;1.40;;;9.10;99.90;;;;;;4909669;29;20056;-83
2021/12/15 13:36:23;;;;;;;4.38;1.40;;;9.00;99.90;;;;;;4910420;29;20060;-83
2021/12/15 13:38:57;;;;;;;3.85;1.35;;;9.00;99.90;;;;;;4905873;29;20043;-83
2021/12/15 13:41:36;;;;;;;3.38;1.33;;;9.00;99.90;;;;;;4926253;29;20044;-83
2021/12/15 13:44:25;;;;;;;4.75;1.00;;;8.40;99.90;;;;;;4894020;29;20116;-83
2021/12/15 13:47:08;;;;;;;3.38;1.23;;;9.10;99.90;;;;;;4909940;29;20052;-83
2021/12/15 13:49:47;;;;;;;6.05;1.40;;;9.10;99.90;;;;;;4893393;29;20052;-82
2021/12/15 13:52:39;;;;;;;7.10;1.73;;;9.20;99.90;;;;;;4901242;29;20079;-84
2021/12/15 13:55:28;;;;;;;3.97;1.20;;;9.30;99.90;;;;;;4907134;29;20055;-80
2021/12/15 13:57:54;;;;;;;5.15;1.58;;;9.30;99.90;;;;;;4909043;29;20048;-83
2021/12/15 14:00:53;;;;;;;5.75;1.58;;;9.30;99.90;;;;;;4906854;29;20052;-83
2021/12/15 14:03:19;;;;;;;6.15;1.40;;;9.20;99.90;;;;;;4903624;29;20055;-83
2021/12/15 14:05:52;;;;;;;6.85;1.45;;;9.20;99.90;;;;;;4925438;29;20051;-83
2021/12/15 14:08:43;;;;;;;6.35;1.70;;;9.10;99.90;;;;;;4908817;29;20301;-83
2021/12/15 14:11:17;;;;;;;5.00;1.50;;;9.10;99.90;;;;;;4907415;29;20405;-80
2021/12/15 14:14:06;;;;;;;5.65;1.70;;;9.10;99.90;;;;;;4910762;29;20593;-85
2021/12/15 14:16:40;;;;;;;7.53;1.60;;;9.10;99.90;;;;;;4907809;29;20131;-82
2021/12/15 14:19:11;;;;;;;8.30;1.83;;;9.30;99.90;;;;;;4909486;29;20070;-85
2021/12/15 14:21:41;;;;;;;6.60;1.70;;;9.10;99.90;;;;;;4908702;29;20079;-84
2021/12/15 14:24:08;;;;;;;5.28;1.65;;;9.00;99.90;;;;;;4892774;29;20434;-84
2021/12/15 14:26:36;;;;;;;5.82;1.60;;;9.00;99.90;;;;;;4908731;29;20064;-84
2021/12/15 14:29:13;;;;;;;5.03;1.60;;;8.00;99.90;;;;;;4908776;29;20099;-84
2021/12/15 14:31:44;;;;;;;6.80;1.33;;;8.60;99.90;;;;;;4874320;29;20080;-84
2021/12/15 14:34:16;;;;;;;5.97;1.60;;;9.10;99.90;;;;;;4904173;29;20060;-84
2021/12/15 14:36:48;;;;;;;6.10;1.77;;;9.00;99.90;;;;;;4889051;29;20108;-84
2021/12/15 14:39:23;;;;;;;6.88;1.75;;;9.00;99.90;;;;;;4886221;29;20055;-84
2021/12/15 14:41:58;;;;;;;4.97;1.60;;;9.00;99.90;;;;;;4890303;29;20045;-84
2021/12/15 14:44:30;;;;;;;4.03;1.38;;;9.00;99.90;;;;;;4890994;29;20045;-82
2021/12/15 14:47:12;;;;;;;5.15;1.38;;;9.00;99.90;;;;;;4889933;29;20506;-83
2021/12/15 14:49:51;;;;;;;4.35;1.52;;;9.00;99.90;;;;;;4902456;29;20052;-85